Time;durP1;ratioP1;P1;durP2;ratioP2;P2;SDS_P1;SDS_P2;PMS_P1;PMS_P2;Temp;Humidity;BMP_temperature;BMP_pressure;BME280_temperature;BME280_humidity;BME280_pressure;Samples;Min_cycle;Max_cycle;Signal;HPM_P1;HPM_P2
2022/05/31 00:01:24;;;;;;;9.65;5.20;;;;;;;18.97;99.90;94732.06;5042788;28;20229;-77
2022/05/31 00:03:58;;;;;;;11.98;5.47;;;;;;;19.05;99.75;94727.03;5045268;28;20241;-77
2022/05/31 00:06:33;;;;;;;13.27;5.28;;;;;;;19.05;99.76;94727.03;5045397;28;20205;-78
2022/05/31 00:09:04;;;;;;;15.02;5.68;;;;;;;19.02;100.00;94726.75;5044941;28;20215;-78
2022/05/31 00:11:41;;;;;;;15.05;6.00;;;;;;;19.04;100.00;94725.47;5045070;28;20209;-78
2022/05/31 00:14:15;;;;;;;13.98;5.85;;;;;;;19.05;100.00;94724.38;5044192;28;20329;-78
2022/05/31 00:17:00;;;;;;;12.77;6.30;;;;;;;19.00;100.00;94726.25;5044347;28;20208;-79
2022/05/31 00:19:35;;;;;;;10.75;5.43;;;;;;;19.03;100.00;94734.41;5043768;28;20221;-78
2022/05/31 00:22:10;;;;;;;13.63;5.70;;;;;;;19.03;99.53;94723.09;5045472;28;20775;-78
2022/05/31 00:24:47;;;;;;;12.27;5.75;;;;;;;18.96;100.00;94726.00;5047143;28;20665;-79
2022/05/31 00:27:21;;;;;;;13.55;5.95;;;;;;;18.92;100.00;94724.97;5043545;28;20256;-79
2022/05/31 00:29:55;;;;;;;9.55;5.68;;;;;;;18.92;100.00;94732.88;5043078;28;20201;-78
2022/05/31 00:32:30;;;;;;;16.17;5.93;;;;;;;18.86;100.00;94731.31;5044265;28;20212;-78
2022/05/31 00:35:10;;;;;;;11.57;6.30;;;;;;;18.84;100.00;94732.63;5043706;28;20201;-78
2022/05/31 00:37:42;;;;;;;16.58;6.55;;;;;;;18.75;100.00;94726.31;5045271;28;20299;-77
2022/05/31 00:40:20;;;;;;;11.88;5.78;;;;;;;18.61;100.00;94729.47;5044553;28;20206;-81
2022/05/31 00:42:57;;;;;;;18.63;9.70;;;;;;;18.67;100.00;94733.69;5041161;28;20518;-79
2022/05/31 00:45:37;;;;;;;39.53;25.75;;;;;;;18.68;100.00;94731.84;5040469;28;20244;-78
2022/05/31 00:48:16;;;;;;;61.80;37.33;;;;;;;18.71;100.00;94728.69;5039955;28;20202;-80
2022/05/31 00:50:52;;;;;;;43.03;27.42;;;;;;;18.75;100.00;94729.75;5044701;28;20669;-80
2022/05/31 00:53:25;;;;;;;46.05;26.55;;;;;;;18.75;100.00;94732.38;5041295;28;20229;-80
2022/05/31 00:56:06;;;;;;;30.95;20.92;;;;;;;18.66;100.00;94731.34;5042640;28;20193;-82
2022/05/31 00:58:47;;;;;;;31.05;18.98;;;;;;;18.66;100.00;94733.97;5047873;28;20209;-83
2022/05/31 01:01:23;;;;;;;22.90;14.68;;;;;;;18.64;100.00;94731.59;5042846;28;20853;-77
2022/05/31 01:03:58;;;;;;;14.93;9.83;;;;;;;18.62;100.00;94731.06;5036451;28;20228;-78
2022/05/31 01:06:30;;;;;;;12.02;7.32;;;;;;;18.45;100.00;94735.00;5042203;28;20203;-77
2022/05/31 01:09:08;;;;;;;14.43;6.40;;;;;;;18.34;100.00;94746.59;5035234;28;20207;-77
2022/05/31 01:11:44;;;;;;;13.37;6.70;;;;;;;18.17;100.00;94738.16;5032498;28;20209;-77
2022/05/31 01:14:20;;;;;;;13.67;6.87;;;;;;;18.13;100.00;94735.28;5033942;28;20230;-77
2022/05/31 01:17:04;;;;;;;15.87;8.23;;;;;;;18.22;100.00;94738.97;5031332;28;20213;-77
2022/05/31 01:20:01;;;;;;;17.07;8.43;;;;;;;18.29;100.00;94736.88;5035652;28;20591;-77
2022/05/31 01:22:42;;;;;;;14.97;6.97;;;;;;;18.21;100.00;94741.88;5036333;28;20230;-76
2022/05/31 01:25:38;;;;;;;15.00;6.67;;;;;;;18.18;100.00;94740.56;5029825;28;20253;-76
2022/05/31 01:28:21;;;;;;;16.00;6.65;;;;;;;18.12;100.00;94752.13;5032373;28;20202;-75
2022/05/31 01:30:58;;;;;;;11.93;6.43;;;;;;;18.05;100.00;94744.47;5032138;28;20241;-75
2022/05/31 01:33:37;;;;;;;11.37;6.70;;;;;;;17.99;100.00;94737.63;5037269;28;20206;-76
2022/05/31 01:36:15;;;;;;;14.70;7.17;;;;;;;17.85;100.00;94735.78;5042206;28;20913;-76
2022/05/31 01:38:53;;;;;;;18.10;7.17;;;;;;;17.90;100.00;94749.72;5035626;28;20206;-76
2022/05/31 01:41:36;;;;;;;18.03;7.00;;;;;;;17.80;100.00;94726.03;5035673;28;20612;-76
2022/05/31 01:44:13;;;;;;;20.57;6.83;;;;;;;17.77;100.00;94729.19;5051329;28;20241;-76
2022/05/31 01:46:49;;;;;;;9.87;6.70;;;;;;;17.80;100.00;94731.31;5066882;28;20207;-76
2022/05/31 01:49:26;;;;;;;15.03;6.40;;;;;;;17.85;100.00;94731.31;5064703;28;20201;-77
2022/05/31 01:52:02;;;;;;;15.27;6.17;;;;;;;17.87;100.00;94734.47;5063168;28;20205;-78
2022/05/31 01:54:42;;;;;;;16.47;6.70;;;;;;;17.88;100.00;94735.25;5066371;28;20189;-77
2022/05/31 01:57:19;;;;;;;13.00;7.10;;;;;;;17.83;100.00;94733.41;5065154;28;20209;-77
2022/05/31 01:59:58;;;;;;;10.83;6.80;;;;;;;17.82;100.00;94733.66;5064711;28;20201;-76
2022/05/31 02:02:31;;;;;;;17.37;6.90;;;;;;;17.79;100.00;94734.19;5065748;28;20668;-77
2022/05/31 02:05:08;;;;;;;22.67;6.78;;;;;;;17.81;100.00;94737.31;5064686;28;20264;-76
2022/05/31 02:07:43;;;;;;;17.83;7.27;;;;;;;17.82;100.00;94739.72;5066041;28;20207;-76
2022/05/31 02:10:21;;;;;;;19.90;7.13;;;;;;;17.85;100.00;94736.56;5065812;28;20212;-77
2022/05/31 02:12:59;;;;;;;19.80;6.80;;;;;;;17.88;100.00;94738.69;5063284;28;20998;-77
2022/05/31 02:15:32;;;;;;;17.00;6.73;;;;;;;17.89;100.00;94729.72;5067211;28;20255;-76
2022/05/31 02:18:05;;;;;;;13.43;6.47;;;;;;;17.79;100.00;94739.44;5069347;28;20302;-77
2022/05/31 02:20:39;;;;;;;18.07;7.10;;;;;;;17.69;100.00;94737.56;5067357;28;20237;-73
2022/05/31 02:23:10;;;;;;;17.07;6.90;;;;;;;17.73;100.00;94738.63;5061882;28;20217;-74
2022/05/31 02:25:46;;;;;;;13.77;6.33;;;;;;;17.75;100.00;94743.66;5064702;28;20233;-75
2022/05/31 02:28:22;;;;;;;12.60;6.73;;;;;;;17.77;100.00;94739.72;5066398;28;20605;-76
2022/05/31 02:30:53;;;;;;;13.07;6.73;;;;;;;17.82;100.00;94750.22;5062692;28;20197;-75
2022/05/31 02:33:26;;;;;;;17.27;6.60;;;;;;;17.88;100.00;94745.78;5063135;28;20197;-75
2022/05/31 02:35:57;;;;;;;12.37;6.27;;;;;;;17.87;100.00;94747.59;5066296;28;20205;-75
2022/05/31 02:38:32;;;;;;;19.17;6.83;;;;;;;17.95;100.00;94746.31;5065187;28;20205;-76
2022/05/31 02:41:07;;;;;;;13.83;6.93;;;;;;;17.96;100.00;94743.41;5064746;28;20201;-74
2022/05/31 02:43:40;;;;;;;20.97;7.73;;;;;;;17.90;100.00;94744.47;5067278;28;20237;-75
2022/05/31 02:46:16;;;;;;;20.87;7.37;;;;;;;17.88;100.00;94753.66;5067213;28;20217;-77
2022/05/31 02:48:49;;;;;;;17.13;7.37;;;;;;;17.86;100.00;94761.03;5066224;28;20283;-78
2022/05/31 02:51:24;;;;;;;23.07;7.73;;;;;;;17.86;100.00;94758.41;5065458;28;20212;-74
2022/05/31 02:53:58;;;;;;;16.67;6.83;;;;;;;17.86;100.00;94771.53;5062123;28;20208;-74
2022/05/31 02:56:36;;;;;;;16.97;7.00;;;;;;;17.84;100.00;94774.41;5065265;28;20254;-74
2022/05/31 02:59:09;;;;;;;18.23;7.00;;;;;;;17.82;100.00;94773.91;5065355;28;20205;-74
2022/05/31 03:01:47;;;;;;;17.47;7.60;;;;;;;17.78;100.00;94762.31;5065099;28;20663;-73
2022/05/31 03:04:20;;;;;;;19.83;7.57;;;;;;;17.81;100.00;94774.94;5065744;28;20197;-73
2022/05/31 03:06:54;;;;;;;16.97;7.23;;;;;;;17.79;100.00;94776.25;5062194;28;20292;-73
2022/05/31 03:09:26;;;;;;;19.60;7.57;;;;;;;17.80;100.00;94783.09;5061927;28;20208;-74
2022/05/31 03:12:12;;;;;;;16.13;7.30;;;;;;;17.81;100.00;94777.56;5066342;28;20258;-73
2022/05/31 03:14:50;;;;;;;23.20;8.20;;;;;;;17.81;100.00;94784.66;5066759;28;20201;-74
2022/05/31 03:17:25;;;;;;;21.73;7.63;;;;;;;17.82;100.00;94779.16;5066243;28;20201;-73
2022/05/31 03:20:06;;;;;;;14.40;8.30;;;;;;;17.75;100.00;94788.34;5064434;28;20200;-74
2022/05/31 03:22:46;;;;;;;14.67;7.33;;;;;;;17.62;100.00;94784.34;5064381;28;20292;-74
2022/05/31 03:25:21;;;;;;;14.03;8.03;;;;;;;17.50;100.00;94783.75;5064605;28;20430;-75
2022/05/31 03:28:04;;;;;;;12.37;7.33;;;;;;;17.49;100.00;94796.09;5064436;28;20228;-74
2022/05/31 03:30:38;;;;;;;16.53;7.73;;;;;;;17.52;100.00;94792.94;5063011;28;20209;-74
2022/05/31 03:33:15;;;;;;;13.83;7.70;;;;;;;17.56;100.00;94799.31;5064088;28;20213;-73
2022/05/31 03:35:48;;;;;;;16.73;7.83;;;;;;;17.50;100.00;94794.25;5064042;28;20252;-73
2022/05/31 03:38:23;;;;;;;24.43;11.27;;;;;;;17.33;100.00;94791.84;5062930;28;20280;-74
2022/05/31 03:41:01;;;;;;;27.27;11.93;;;;;;;17.31;100.00;94801.81;5061832;28;20686;-74
2022/05/31 03:43:37;;;;;;;32.73;11.50;;;;;;;17.31;100.00;94808.91;5064013;28;20836;-74
2022/05/31 03:46:15;;;;;;;20.73;10.90;;;;;;;17.35;100.00;94796.81;5065243;28;20269;-73
2022/05/31 03:48:46;;;;;;;19.57;9.57;;;;;;;17.37;100.00;94805.25;5066721;28;20205;-74
2022/05/31 03:51:15;;;;;;;23.10;9.30;;;;;;;17.37;100.00;94806.03;5060229;28;20284;-74
2022/05/31 03:53:44;;;;;;;21.87;8.70;;;;;;;17.43;100.00;94804.25;5061951;28;20805;-74
2022/05/31 03:56:18;;;;;;;14.33;7.97;;;;;;;17.29;100.00;94808.34;5063088;28;20212;-73
2022/05/31 03:58:52;;;;;;;16.13;7.60;;;;;;;17.26;100.00;94804.41;5062802;28;20211;-73
2022/05/31 04:01:25;;;;;;;17.67;7.47;;;;;;;17.19;100.00;94803.06;5061408;28;20190;-73
2022/05/31 04:04:03;;;;;;;16.23;7.93;;;;;;;16.84;100.00;94803.63;5062416;28;20201;-73
2022/05/31 04:06:35;;;;;;;13.80;7.77;;;;;;;16.78;100.00;94809.88;5061349;28;20225;-75
2022/05/31 04:09:09;;;;;;;15.97;8.10;;;;;;;16.74;100.00;94806.97;5062063;28;20210;-74
2022/05/31 04:11:39;;;;;;;21.80;8.77;;;;;;;16.69;100.00;94803.53;5064669;28;20292;-74
2022/05/31 04:14:16;;;;;;;19.60;8.77;;;;;;;16.66;100.00;94796.16;5065123;28;20216;-75
2022/05/31 04:16:47;;;;;;;14.37;8.13;;;;;;;16.88;100.00;94809.97;5064746;28;20196;-74
2022/05/31 04:19:16;;;;;;;18.07;8.47;;;;;;;16.88;100.00;94808.13;5063507;28;20704;-74
2022/05/31 04:21:45;;;;;;;13.03;8.63;;;;;;;17.02;100.00;94821.63;5062533;28;20284;-74
2022/05/31 04:24:18;;;;;;;16.90;9.10;;;;;;;17.05;100.00;94828.19;5064164;28;20827;-74
2022/05/31 04:26:50;;;;;;;15.73;8.37;;;;;;;17.19;100.00;94822.25;5063548;28;20288;-75
2022/05/31 04:29:23;;;;;;;18.63;8.87;;;;;;;17.22;100.00;94823.56;5063456;28;20213;-76
2022/05/31 04:31:55;;;;;;;28.73;9.07;;;;;;;17.36;100.00;94824.69;5061519;28;20216;-74
2022/05/31 04:34:25;;;;;;;22.17;8.53;;;;;;;17.34;100.00;94829.41;5064041;28;20213;-76
2022/05/31 04:36:56;;;;;;;15.13;8.30;;;;;;;17.37;100.00;94826.28;5066519;28;20201;-75
2022/05/31 04:39:26;;;;;;;17.60;7.80;;;;;;;17.42;100.00;94827.09;5064044;28;20210;-75
2022/05/31 04:41:56;;;;;;;15.57;8.33;;;;;;;17.47;100.00;94834.19;5061053;28;20616;-76
2022/05/31 04:44:30;;;;;;;17.50;8.23;;;;;;;17.55;100.00;94834.53;5063093;28;20237;-75
2022/05/31 04:47:03;;;;;;;14.33;7.87;;;;;;;17.66;100.00;94835.38;5063561;28;20722;-76
2022/05/31 04:49:38;;;;;;;21.43;7.70;;;;;;;17.72;100.00;94844.84;5062944;28;20197;-75
2022/05/31 04:52:11;;;;;;;20.63;8.13;;;;;;;17.54;100.00;94845.31;5063229;28;20211;-75
2022/05/31 04:54:42;;;;;;;16.50;8.20;;;;;;;17.51;100.00;94846.59;5062767;28;20208;-75
2022/05/31 04:57:10;;;;;;;15.37;7.57;;;;;;;17.48;100.00;94844.47;5064326;28;20996;-75
2022/05/31 04:59:42;;;;;;;15.10;8.50;;;;;;;17.47;100.00;94835.00;5064038;28;20300;-76
2022/05/31 05:02:16;;;;;;;14.00;8.13;;;;;;;17.62;100.00;94838.75;5064798;28;20213;-75
2022/05/31 05:04:48;;;;;;;15.23;8.33;;;;;;;17.70;100.00;94846.94;5062654;28;20201;-75
2022/05/31 05:07:20;;;;;;;22.60;10.17;;;;;;;17.73;100.00;94840.38;5063746;28;20229;-75
2022/05/31 05:09:55;;;;;;;15.63;9.57;;;;;;;17.73;100.00;94841.19;5059765;28;20202;-76
2022/05/31 05:12:26;;;;;;;14.97;9.30;;;;;;;17.73;100.00;94841.19;5060446;28;20588;-75
2022/05/31 05:15:02;;;;;;;23.07;10.43;;;;;;;17.78;100.00;94835.94;5066575;28;20204;-75
2022/05/31 05:17:35;;;;;;;22.70;9.67;;;;;;;17.85;100.00;94839.13;5067050;28;20197;-75
2022/05/31 05:20:03;;;;;;;25.80;12.57;;;;;;;17.91;100.00;94845.97;5066309;28;20209;-74
2022/05/31 05:22:39;;;;;;;24.67;11.03;;;;;;;17.94;100.00;94845.47;5066526;28;20217;-75
2022/05/31 05:25:11;;;;;;;24.40;10.00;;;;;;;17.86;100.00;94843.34;5068562;28;20229;-74
2022/05/31 05:27:41;;;;;;;16.83;9.30;;;;;;;17.94;100.00;94840.19;5068050;28;20213;-76
2022/05/31 05:33:02;;;;;;;16.57;8.50;;;;;;;18.06;100.00;94839.97;5066458;28;20204;-75
2022/05/31 05:35:34;;;;;;;23.20;8.43;;;;;;;18.13;100.00;94843.94;5065154;28;20296;-73
2022/05/31 05:38:07;;;;;;;16.75;8.50;;;;;;;18.24;100.00;94836.06;5066182;28;20197;-73
2022/05/31 05:40:37;;;;;;;18.23;8.87;;;;;;;18.23;100.00;94840.53;5066175;28;20220;-73
2022/05/31 05:43:11;;;;;;;15.10;8.95;;;;;;;18.28;100.00;94843.16;5066243;28;20732;-73
2022/05/31 05:45:43;;;;;;;17.03;8.80;;;;;;;18.37;100.00;94853.97;5066004;28;20222;-73
2022/05/31 05:48:14;;;;;;;23.80;8.63;;;;;;;18.38;100.00;94843.19;5066308;28;20726;-75
2022/05/31 05:50:44;;;;;;;18.87;9.60;;;;;;;18.47;100.00;94849.50;5064383;28;20223;-75
2022/05/31 05:53:15;;;;;;;24.80;10.07;;;;;;;18.48;100.00;94851.13;5066960;28;20278;-73
2022/05/31 05:55:49;;;;;;;18.23;10.57;;;;;;;18.51;100.00;94855.06;5063869;28;20205;-73
2022/05/31 05:58:22;;;;;;;28.48;11.15;;;;;;;18.61;100.00;94860.38;5066523;28;20202;-74
2022/05/31 06:00:56;;;;;;;17.35;10.55;;;;;;;18.62;100.00;94854.81;5063386;28;20208;-73
2022/05/31 06:03:34;;;;;;;21.48;10.70;;;;;;;18.79;100.00;94862.47;5065295;28;20193;-74
2022/05/31 06:06:06;;;;;;;25.40;10.02;;;;;;;18.85;100.00;94865.88;5064715;28;20236;-73
2022/05/31 06:08:40;;;;;;;19.45;9.68;;;;;;;18.86;100.00;94860.38;5065595;28;20637;-74
2022/05/31 06:11:17;;;;;;;22.00;10.10;;;;;;;18.93;100.00;94852.97;5063948;28;20209;-75
2022/05/31 06:13:55;;;;;;;22.08;10.27;;;;;;;19.03;100.00;94866.16;5065586;28;20625;-73
2022/05/31 06:16:33;;;;;;;29.17;11.80;;;;;;;19.11;100.00;94860.34;5063946;28;20201;-76
2022/05/31 06:19:09;;;;;;;19.80;11.35;;;;;;;19.18;100.00;94855.59;5068203;28;20205;-78
2022/05/31 06:21:43;;;;;;;33.80;12.00;;;;;;;19.26;100.00;94864.78;5066787;28;20575;-79
2022/05/31 06:24:17;;;;;;;25.95;10.63;;;;;;;19.36;100.00;94858.72;5066182;28;20212;-78
2022/05/31 06:26:50;;;;;;;28.15;11.25;;;;;;;19.40;100.00;94854.50;5062448;28;20221;-77
2022/05/31 06:29:22;;;;;;;40.60;11.20;;;;;;;19.47;100.00;94855.81;5063682;28;20205;-77
2022/05/31 06:31:55;;;;;;;28.58;11.48;;;;;;;19.44;100.00;94847.66;5065381;28;20198;-77
2022/05/31 06:34:24;;;;;;;23.88;12.13;;;;;;;19.59;100.00;94858.97;5065047;28;20198;-76
2022/05/31 06:37:05;;;;;;;22.35;11.13;;;;;;;19.66;100.00;94861.28;5063829;28;20227;-79
2022/05/31 06:39:41;;;;;;;22.17;11.32;;;;;;;19.67;100.00;94850.50;5065922;28;20332;-78
2022/05/31 06:42:17;;;;;;;22.27;10.45;;;;;;;19.78;100.00;94849.38;5066989;28;20218;-77
2022/05/31 06:44:48;;;;;;;42.22;11.60;;;;;;;19.81;100.00;94855.97;5066938;28;20245;-80
2022/05/31 06:47:21;;;;;;;30.65;10.25;;;;;;;19.88;100.00;94850.41;5066226;28;20312;-80
2022/05/31 06:49:54;;;;;;;24.35;10.73;;;;;;;19.82;100.00;94844.38;5067503;28;20238;-78
2022/05/31 06:58:00;;;;;;;34.67;10.82;;;;;;;20.17;100.00;94851.31;5063196;28;20197;-76
2022/05/31 07:00:29;;;;;;;28.33;9.63;;;;;;;20.18;100.00;94848.41;5064690;28;20696;-79
2022/05/31 07:03:03;;;;;;;19.20;9.32;;;;;;;20.27;100.00;94843.38;5065226;28;20259;-79
2022/05/31 07:05:35;;;;;;;21.60;8.32;;;;;;;20.37;99.96;94848.59;5063047;28;20243;-77
2022/05/31 07:08:10;;;;;;;17.27;8.45;;;;;;;20.40;98.82;94850.69;5065151;28;20300;-77
2022/05/31 07:10:42;;;;;;;18.58;8.65;;;;;;;20.41;97.31;94843.53;5063453;28;20205;-76
2022/05/31 07:13:16;;;;;;;20.27;8.38;;;;;;;20.45;96.86;94847.22;5064652;28;21511;-78
2022/05/31 07:15:46;;;;;;;20.70;8.82;;;;;;;20.51;96.18;94844.28;5066289;28;20233;-77
2022/05/31 07:18:21;;;;;;;26.35;9.02;;;;;;;20.59;96.47;94845.53;5067030;28;20300;-77
2022/05/31 07:20:50;;;;;;;15.50;8.52;;;;;;;20.64;95.56;94848.13;5063935;28;20228;-77
2022/05/31 07:23:24;;;;;;;17.27;8.40;;;;;;;20.70;94.52;94844.41;5062669;28;20602;-75
2022/05/31 07:25:56;;;;;;;19.88;8.95;;;;;;;20.74;94.66;94858.63;5062859;28;20639;-80
2022/05/31 07:28:28;;;;;;;76.32;14.63;;;;;;;20.81;94.84;94859.88;5066074;28;20229;-81
2022/05/31 07:31:05;;;;;;;33.33;9.90;;;;;;;20.86;95.00;94851.94;5067555;28;20274;-88
2022/05/31 07:33:41;;;;;;;40.67;10.27;;;;;;;21.01;97.35;94852.88;5065784;28;21005;-83
2022/05/31 07:36:12;;;;;;;21.40;8.73;;;;;;;20.99;94.81;94841.78;5070611;28;20201;-83
2022/05/31 07:38:42;;;;;;;76.05;11.55;;;;;;;21.06;93.31;94850.97;5070953;28;20209;-84
2022/05/31 07:41:17;;;;;;;43.58;9.90;;;;;;;21.12;93.91;94855.19;5071727;28;20202;-84
2022/05/31 07:43:52;;;;;;;55.58;11.60;;;;;;;21.25;92.42;94846.59;5072089;28;20225;-84
2022/05/31 07:46:26;;;;;;;14.95;8.05;;;;;;;21.30;90.92;94841.25;5072977;28;20275;-84
2022/05/31 07:49:03;;;;;;;10.65;7.00;;;;;;;21.41;90.03;94842.72;5068207;28;20209;-84
2022/05/31 07:51:41;;;;;;;64.82;11.35;;;;;;;21.47;90.01;94831.00;5071416;28;20209;-84
2022/05/31 07:54:14;;;;;;;26.17;8.60;;;;;;;21.54;90.44;94830.69;5070998;28;20197;-83
2022/05/31 07:56:45;;;;;;;14.70;7.22;;;;;;;21.66;87.68;94835.59;5060483;28;20209;-83
2022/05/31 07:59:16;;;;;;;19.70;8.07;;;;;;;21.69;86.94;94829.72;5062592;28;20209;-85
2022/05/31 08:01:48;;;;;;;13.73;7.30;;;;;;;21.74;87.70;94835.75;5071410;28;20276;-85
2022/05/31 08:04:24;;;;;;;12.40;6.95;;;;;;;21.80;86.92;94839.91;5071621;28;20612;-85
2022/05/31 08:06:59;;;;;;;14.95;6.75;;;;;;;21.83;84.97;94830.63;5071261;28;20213;-83
2022/05/31 08:09:29;;;;;;;11.65;6.75;;;;;;;21.81;84.59;94836.19;5071756;28;20232;-83
2022/05/31 08:11:59;;;;;;;26.58;8.40;;;;;;;21.85;84.77;94839.84;5071467;28;20287;-83
2022/05/31 08:14:29;;;;;;;16.48;7.20;;;;;;;22.00;84.77;94834.41;5071956;28;20284;-83
2022/05/31 08:17:00;;;;;;;12.52;6.93;;;;;;;22.10;80.85;94838.00;5071817;28;20607;-83
2022/05/31 08:19:37;;;;;;;51.25;21.15;;;;;;;22.16;81.51;94840.28;5072595;28;20224;-83
2022/05/31 08:22:11;;;;;;;15.27;6.28;;;;;;;22.31;81.56;94832.13;5079060;28;20291;-84
2022/05/31 08:24:48;;;;;;;13.90;6.40;;;;;;;22.41;79.86;94829.34;5073439;28;20301;-84
2022/05/31 08:27:24;;;;;;;14.68;6.00;;;;;;;22.53;76.99;94828.91;5065501;28;20300;-84
2022/05/31 08:29:58;;;;;;;10.05;5.30;;;;;;;22.65;76.21;94833.78;5074256;28;20205;-84
2022/05/31 08:32:30;;;;;;;18.02;6.28;;;;;;;22.71;74.79;94832.63;5071215;28;20582;-84
2022/05/31 08:35:07;;;;;;;35.97;8.50;;;;;;;22.75;75.94;94823.00;5072109;28;20185;-83
2022/05/31 08:37:40;;;;;;;21.52;6.93;;;;;;;22.84;76.07;94815.97;5072328;28;20231;-84
2022/05/31 08:40:11;;;;;;;9.20;5.03;;;;;;;22.98;73.65;94814.16;5071606;28;20229;-84
2022/05/31 08:42:57;;;;;;;11.02;6.00;;;;;;;22.91;73.12;94819.84;5051404;28;20182;-84
2022/05/31 08:45:40;;;;;;;15.13;5.78;;;;;;;22.89;73.79;94815.88;5051797;28;20205;-86
2022/05/31 08:48:27;;;;;;;14.13;5.82;;;;;;;23.01;73.47;94817.00;5053111;28;20275;-84
2022/05/31 08:57:00;;;;;;;25.80;8.27;;;;;;;23.28;76.07;94803.03;5064062;28;20224;-84
2022/05/31 08:59:39;;;;;;;16.17;6.30;;;;;;;23.48;74.26;94809.84;5075179;28;20200;-85
2022/05/31 09:02:25;;;;;;;13.20;5.07;;;;;;;23.60;73.37;94807.50;5074874;28;20322;-81
2022/05/31 09:05:07;;;;;;;21.90;7.45;;;;;;;23.73;73.17;94810.13;5069621;28;20675;-77
2022/05/31 09:07:48;;;;;;;14.70;6.50;;;;;;;23.85;72.04;94804.31;5073046;28;20236;-76
2022/05/31 09:10:27;;;;;;;12.93;5.32;;;;;;;23.91;67.72;94805.00;5073335;28;20598;-76
2022/05/31 09:13:02;;;;;;;14.73;6.07;;;;;;;23.93;69.38;94805.47;5073629;28;20300;-77
2022/05/31 09:15:43;;;;;;;27.40;6.53;;;;;;;24.02;68.64;94809.00;5073888;28;20601;-79
2022/05/31 09:18:26;;;;;;;12.25;5.30;;;;;;;24.17;66.98;94811.38;5071938;28;20209;-76
2022/05/31 09:20:56;;;;;;;19.75;5.60;;;;;;;24.31;66.01;94801.50;5070787;28;20204;-77
2022/05/31 09:23:32;;;;;;;23.38;5.53;;;;;;;24.46;66.41;94803.81;5073437;28;20198;-79
2022/05/31 09:26:14;;;;;;;10.85;5.57;;;;;;;24.58;65.91;94797.97;5073605;28;20204;-77
2022/05/31 09:28:51;;;;;;;16.55;5.40;;;;;;;24.71;63.63;94795.25;5071999;28;20324;-77
2022/05/31 09:31:37;;;;;;;13.25;5.82;;;;;;;24.76;65.02;94800.44;5073533;28;20358;-77
2022/05/31 09:34:25;;;;;;;11.32;5.05;;;;;;;24.90;63.99;94804.94;5073076;28;20209;-78
2022/05/31 09:37:08;;;;;;;16.25;5.60;;;;;;;25.02;64.86;94799.84;5066844;28;20284;-78
2022/05/31 09:39:57;;;;;;;7.68;4.53;;;;;;;25.17;63.30;94802.09;5073665;28;20271;-78
2022/05/31 09:42:41;;;;;;;14.80;5.38;;;;;;;25.34;62.59;94797.66;5073065;28;20663;-79
2022/05/31 09:45:14;;;;;;;16.92;4.80;;;;;;;25.50;62.35;94799.94;5072514;28;20274;-78
2022/05/31 09:47:44;;;;;;;11.98;5.00;;;;;;;25.62;62.13;94800.16;5072009;28;20229;-79
2022/05/31 09:50:13;;;;;;;10.43;4.85;;;;;;;25.74;61.84;94795.78;5071619;28;20209;-79
2022/05/31 09:52:47;;;;;;;20.27;5.68;;;;;;;25.88;61.45;94801.81;5070895;28;20329;-79
2022/05/31 09:58:26;;;;;;;17.88;4.78;;;;;;;26.27;61.13;94794.81;5065307;28;20204;-78
2022/05/31 10:01:12;;;;;;;16.58;5.53;;;;;;;26.37;59.87;94789.19;5071033;28;20640;-78
2022/05/31 10:03:48;;;;;;;17.85;5.43;;;;;;;26.52;59.75;94802.06;5071462;28;20197;-76
2022/05/31 10:06:25;;;;;;;10.88;4.82;;;;;;;26.56;58.45;94787.00;5071949;28;20200;-76
2022/05/31 10:08:58;;;;;;;7.15;5.10;;;;;;;26.64;57.12;94791.53;5071537;28;20584;-75
2022/05/31 10:11:34;;;;;;;21.58;4.90;;;;;;;26.72;58.41;94784.63;5070063;28;20205;-78
2022/05/31 10:14:11;;;;;;;14.20;4.53;;;;;;;26.90;58.23;94786.97;5065334;28;20209;-76
2022/05/31 10:16:49;;;;;;;14.68;5.72;;;;;;;27.10;57.11;94788.19;5070922;28;20267;-76
2022/05/31 10:19:28;;;;;;;10.43;4.75;;;;;;;27.16;57.55;94786.91;5070942;28;20275;-75
2022/05/31 10:22:24;;;;;;;14.82;4.80;;;;;;;27.30;55.92;94794.75;5071429;28;20237;-77
2022/05/31 10:24:59;;;;;;;20.58;6.65;;;;;;;27.42;55.90;94786.84;5072014;28;20206;-83
2022/05/31 10:27:36;;;;;;;15.43;7.53;;;;;;;27.51;56.00;94782.25;5070776;28;20295;-80
2022/05/31 10:30:13;;;;;;;21.50;6.70;;;;;;;27.69;55.34;94782.97;5071845;28;20208;-79
2022/05/31 10:32:58;;;;;;;22.80;5.80;;;;;;;27.86;54.79;94772.97;5065267;28;20564;-79
2022/05/31 10:35:37;;;;;;;24.25;5.15;;;;;;;28.24;53.54;94775.59;5067975;28;20227;-79
2022/05/31 10:38:30;;;;;;;15.07;4.88;;;;;;;28.51;51.78;94775.06;5071623;28;20204;-79
2022/05/31 10:41:07;;;;;;;10.23;4.43;;;;;;;28.64;50.83;94771.34;5065467;28;20251;-79
2022/05/31 10:43:45;;;;;;;9.30;4.82;;;;;;;28.59;50.75;94768.84;4977351;28;2620781;-79
2022/05/31 10:46:33;;;;;;;14.15;5.03;;;;;;;28.55;52.21;94759.91;5071537;28;20209;-79
2022/05/31 10:49:15;;;;;;;10.77;4.80;;;;;;;28.48;50.60;94754.31;5071441;28;20282;-76
2022/05/31 10:51:59;;;;;;;12.85;4.55;;;;;;;28.48;51.29;94753.53;5071763;28;20205;-77
2022/05/31 10:54:53;;;;;;;11.45;4.75;;;;;;;28.97;50.58;94760.66;5071301;28;20338;-76
2022/05/31 10:57:38;;;;;;;8.82;4.57;;;;;;;29.24;48.95;94762.75;5064981;28;20237;-77
2022/05/31 11:00:22;;;;;;;9.70;4.45;;;;;;;29.27;47.75;94761.28;5067886;28;20300;-77
2022/05/31 11:03:28;;;;;;;7.55;3.80;;;;;;;29.12;46.75;94759.25;5071452;28;20549;-76
2022/05/31 11:06:19;;;;;;;12.70;4.00;;;;;;;29.23;48.19;94744.34;5064814;28;20212;-77
2022/05/31 11:12:15;;;;;;;10.35;4.00;;;;;;;30.13;48.10;94734.13;5070195;28;20558;-77
2022/05/31 11:14:58;;;;;;;31.20;5.70;;;;;;;30.50;47.37;94742.91;5065838;28;20204;-77
2022/05/31 11:18:00;;;;;;;44.20;7.30;;;;;;;30.71;45.83;94734.63;5070840;28;20205;-77
2022/05/31 11:20:34;;;;;;;27.63;7.15;;;;;;;30.81;44.04;94718.81;5062919;28;20240;-76
2022/05/31 11:23:17;;;;;;;26.35;6.45;;;;;;;30.78;44.13;94702.63;5070698;28;20287;-77
2022/05/31 11:26:24;;;;;;;10.50;3.30;;;;;;;30.83;43.35;94730.00;5071317;28;20697;-77
2022/05/31 11:29:10;;;;;;;7.75;3.70;;;;;;;30.73;43.81;94727.03;5067066;28;20225;-77
2022/05/31 11:31:53;;;;;;;20.50;4.25;;;;;;;30.59;44.95;94723.97;5071426;28;20201;-77
2022/05/31 11:34:49;;;;;;;13.27;4.50;;;;;;;30.37;44.27;94727.91;5070096;28;20236;-77
2022/05/31 11:37:49;;;;;;;16.77;5.47;;;;;;;29.94;44.83;94712.50;5063870;28;20201;-78
2022/05/31 11:40:43;;;;;;;26.08;6.82;;;;;;;29.87;44.75;94714.22;5066446;28;20248;-78
2022/05/31 11:43:37;;;;;;;17.38;4.82;;;;;;;29.97;44.86;94709.16;5070553;28;20752;-77
2022/05/31 11:46:20;;;;;;;11.35;3.53;;;;;;;29.99;44.81;94714.16;5070545;28;20237;-77
2022/05/31 11:49:06;;;;;;;22.80;4.80;;;;;;;29.90;45.84;94703.56;5070642;28;20281;-77
2022/05/31 11:52:12;;;;;;;8.95;3.28;;;;;;;29.90;44.73;94708.16;5070779;28;20255;-77
2022/05/31 11:58:34;;;;;;;29.10;5.10;;;;;;;30.12;46.18;94704.97;5070983;28;20698;-77
2022/05/31 12:01:13;;;;;;;45.30;5.43;;;;;;;30.32;45.27;94701.34;5063604;28;20305;-77
2022/05/31 12:03:57;;;;;;;13.23;4.20;;;;;;;30.48;44.73;94696.06;5070918;28;20201;-77
2022/05/31 12:06:40;;;;;;;11.45;3.30;;;;;;;30.59;42.61;94705.19;5071133;28;20636;-77
2022/05/31 12:09:24;;;;;;;12.05;3.35;;;;;;;30.64;42.48;94704.94;5069484;28;20306;-76
2022/05/31 12:12:03;;;;;;;10.05;4.18;;;;;;;30.84;42.36;94699.34;5070205;28;20216;-76
2022/05/31 12:14:41;;;;;;;8.35;2.88;;;;;;;30.97;41.62;94699.31;5070931;28;20205;-77
2022/05/31 12:17:18;;;;;;;13.02;3.83;;;;;;;31.05;42.00;94699.13;5070013;28;20205;-78
2022/05/31 12:19:56;;;;;;;6.70;3.17;;;;;;;31.19;42.21;94701.38;5069909;28;20211;-76
2022/05/31 12:22:37;;;;;;;11.05;3.10;;;;;;;31.19;40.98;94696.78;5068933;28;20266;-76
2022/05/31 12:25:27;;;;;;;5.07;3.05;;;;;;;31.05;41.30;94690.28;5070160;28;20228;-76
2022/05/31 12:28:16;;;;;;;12.57;4.22;;;;;;;31.03;41.44;94693.31;5069998;28;20210;-76